Time;durP1;ratioP1;P1;durP2;ratioP2;P2;SDS_P1;SDS_P2;PMS_P1;PMS_P2;Temp;Humidity;BMP_temperature;BMP_pressure;BME280_temperature;BME280_humidity;BME280_pressure;Samples;Min_cycle;Max_cycle;Signal;HPM_P1;HPM_P2
2023/04/07 00:00:27;;;;;;;11.43;6.70;;;10.20;99.90;;;;;;5017885;28;20187;-64
2023/04/07 00:02:53;;;;;;;12.47;7.23;;;10.20;99.90;;;;;;5017331;28;20186;-63
2023/04/07 00:05:19;;;;;;;12.10;7.33;;;10.30;99.90;;;;;;5008123;28;20558;-63
2023/04/07 00:07:44;;;;;;;13.87;7.53;;;10.40;99.90;;;;;;5019103;28;20246;-64
2023/04/07 00:10:10;;;;;;;12.30;7.27;;;10.40;99.90;;;;;;5015200;28;20228;-63
2023/04/07 00:12:36;;;;;;;12.17;7.47;;;10.40;99.90;;;;;;5020777;28;20728;-63
2023/04/07 00:15:01;;;;;;;16.87;8.07;;;10.40;99.90;;;;;;5031134;28;20220;-63
2023/04/07 00:17:27;;;;;;;11.83;7.17;;;10.40;99.90;;;;;;5016575;28;20229;-64
2023/04/07 00:19:53;;;;;;;13.63;6.73;;;10.40;99.90;;;;;;5001108;28;20184;-64
2023/04/07 00:22:18;;;;;;;9.87;7.23;;;10.30;99.90;;;;;;5018887;28;20237;-64
2023/04/07 00:24:44;;;;;;;15.70;8.47;;;10.20;99.90;;;;;;5008157;28;20212;-63
2023/04/07 00:27:09;;;;;;;14.20;8.33;;;10.20;99.90;;;;;;5012917;28;20195;-64
2023/04/07 00:29:35;;;;;;;13.23;7.53;;;10.20;99.90;;;;;;4999763;28;20238;-64
2023/04/07 00:32:01;;;;;;;11.13;8.03;;;10.10;99.90;;;;;;5000699;28;20187;-64
2023/04/07 00:34:26;;;;;;;12.67;8.27;;;10.10;99.90;;;;;;5007601;28;20190;-64
2023/04/07 00:36:52;;;;;;;14.73;8.03;;;10.10;99.90;;;;;;5010577;28;20200;-64
2023/04/07 00:39:18;;;;;;;14.17;8.97;;;10.10;99.90;;;;;;4998278;28;20202;-64
2023/04/07 00:41:45;;;;;;;11.20;7.73;;;10.10;99.90;;;;;;5007311;28;20184;-64
2023/04/07 00:44:11;;;;;;;18.53;9.10;;;10.20;99.90;;;;;;4995292;28;20247;-63
2023/04/07 00:46:37;;;;;;;12.33;7.63;;;10.10;99.90;;;;;;5011384;28;20188;-64
2023/04/07 00:49:03;;;;;;;13.60;7.37;;;10.00;99.90;;;;;;5009236;28;20191;-64
2023/04/07 00:51:30;;;;;;;13.30;8.37;;;10.00;99.90;;;;;;4999439;28;20187;-63
2023/04/07 00:53:56;;;;;;;12.33;8.07;;;10.00;99.90;;;;;;5012314;28;20187;-63
2023/04/07 00:56:21;;;;;;;17.07;9.17;;;10.00;99.90;;;;;;5004750;28;20211;-63
2023/04/07 00:58:47;;;;;;;16.93;7.70;;;9.90;99.90;;;;;;5001494;28;20187;-63
2023/04/07 01:01:21;;;;;;;15.00;8.97;;;9.90;99.90;;;;;;4997541;28;20196;-63
2023/04/07 01:04:01;;;;;;;12.17;7.93;;;9.90;99.90;;;;;;5003999;28;20183;-63
2023/04/07 01:06:32;;;;;;;13.73;8.40;;;9.80;99.90;;;;;;5011353;28;20190;-63
2023/04/07 01:09:15;;;;;;;18.87;9.33;;;9.80;99.90;;;;;;5000779;28;20675;-62
2023/04/07 01:11:56;;;;;;;12.37;8.60;;;9.70;99.90;;;;;;5007613;28;20190;-64
2023/04/07 01:14:23;;;;;;;12.17;8.20;;;9.60;99.90;;;;;;4998656;28;20609;-63
2023/04/07 01:16:51;;;;;;;15.30;8.67;;;9.60;99.90;;;;;;5005626;28;20231;-63
2023/04/07 01:19:43;;;;;;;15.27;9.00;;;9.60;99.90;;;;;;5003922;28;20179;-63
2023/04/07 01:22:16;;;;;;;18.73;8.90;;;9.60;99.90;;;;;;5000957;28;20261;-63
2023/04/07 01:25:03;;;;;;;20.30;8.53;;;9.70;99.90;;;;;;5038837;28;20190;-63
2023/04/07 01:27:59;;;;;;;20.03;8.97;;;9.70;99.90;;;;;;4999122;28;20532;-64
2023/04/07 01:30:29;;;;;;;14.67;8.07;;;9.70;99.90;;;;;;5002300;28;20194;-64
2023/04/07 01:32:58;;;;;;;12.40;7.80;;;9.70;99.90;;;;;;4999578;28;20186;-64
2023/04/07 01:35:28;;;;;;;18.17;10.47;;;9.60;99.90;;;;;;5001324;28;20200;-64
2023/04/07 01:37:55;;;;;;;19.33;9.57;;;9.70;99.90;;;;;;4996410;28;20595;-64
2023/04/07 01:40:21;;;;;;;15.43;9.00;;;9.70;99.90;;;;;;4993842;28;20224;-63
2023/04/07 01:42:48;;;;;;;16.30;8.47;;;9.70;99.90;;;;;;4993973;28;20531;-64
2023/04/07 01:45:17;;;;;;;11.43;8.03;;;9.70;99.90;;;;;;5001802;28;20187;-64
2023/04/07 01:47:43;;;;;;;16.73;9.53;;;9.70;99.90;;;;;;5007951;28;20274;-64
2023/04/07 01:50:11;;;;;;;16.10;9.13;;;9.70;99.90;;;;;;4998536;28;20608;-63
2023/04/07 01:52:38;;;;;;;14.37;9.17;;;9.70;99.90;;;;;;5008095;28;20265;-64
2023/04/07 01:55:05;;;;;;;18.00;8.40;;;9.70;99.90;;;;;;5004740;28;20294;-64
2023/04/07 01:57:31;;;;;;;18.90;10.00;;;9.60;99.90;;;;;;5011100;28;20187;-64
2023/04/07 01:59:57;;;;;;;15.93;8.73;;;9.70;99.90;;;;;;4998618;28;20246;-64
2023/04/07 02:02:23;;;;;;;15.40;8.37;;;9.70;99.90;;;;;;5006799;28;20679;-63
2023/04/07 02:04:55;;;;;;;18.50;9.33;;;9.70;99.90;;;;;;5007446;28;20215;-63
2023/04/07 02:07:30;;;;;;;12.47;8.67;;;9.60;99.90;;;;;;5007150;28;20191;-64
2023/04/07 02:09:58;;;;;;;14.87;9.67;;;9.60;99.90;;;;;;5001722;28;20179;-64
2023/04/07 02:12:27;;;;;;;13.37;8.67;;;9.60;99.90;;;;;;5028570;28;20191;-64
2023/04/07 02:14:55;;;;;;;22.53;9.77;;;9.60;99.90;;;;;;5010455;28;20203;-64
2023/04/07 02:17:23;;;;;;;18.00;9.77;;;9.70;99.90;;;;;;5014777;28;20773;-64
2023/04/07 02:19:50;;;;;;;20.70;10.17;;;9.60;99.90;;;;;;5022976;28;20193;-64
2023/04/07 02:22:16;;;;;;;20.50;10.10;;;9.70;99.90;;;;;;5022357;28;20180;-64
2023/04/07 02:24:42;;;;;;;15.90;10.33;;;9.70;99.90;;;;;;5020395;28;20198;-64
2023/04/07 02:27:08;;;;;;;18.27;11.47;;;9.60;99.90;;;;;;5033819;28;20274;-64
2023/04/07 02:29:33;;;;;;;19.63;11.57;;;9.60;99.90;;;;;;5007138;28;20188;-63
2023/04/07 02:32:00;;;;;;;17.90;10.43;;;9.50;99.90;;;;;;5019921;28;20208;-63
2023/04/07 02:34:26;;;;;;;19.43;12.03;;;9.60;99.90;;;;;;4998435;28;20664;-64
2023/04/07 02:36:52;;;;;;;17.80;10.80;;;9.60;99.90;;;;;;5030934;28;20214;-63
2023/04/07 02:39:17;;;;;;;19.47;10.57;;;9.60;99.90;;;;;;5025201;28;20195;-63
2023/04/07 02:41:43;;;;;;;21.87;10.73;;;9.60;99.90;;;;;;5001542;28;20876;-64
2023/04/07 02:44:08;;;;;;;29.03;12.60;;;9.60;99.90;;;;;;5028220;28;20190;-64
2023/04/07 02:46:34;;;;;;;16.53;11.77;;;9.60;99.90;;;;;;5023723;28;20200;-63
2023/04/07 02:49:00;;;;;;;19.67;13.60;;;9.60;99.90;;;;;;5021564;28;20184;-63
2023/04/07 02:51:26;;;;;;;20.17;13.37;;;9.50;99.90;;;;;;5018925;28;20187;-63
2023/04/07 02:53:51;;;;;;;19.33;12.30;;;9.50;99.90;;;;;;5012194;28;20199;-63
2023/04/07 02:56:17;;;;;;;36.27;19.77;;;9.50;99.90;;;;;;5025255;28;20246;-63
2023/04/07 02:58:43;;;;;;;31.97;18.43;;;9.50;99.90;;;;;;5019630;28;20196;-63
2023/04/07 03:01:08;;;;;;;38.70;25.40;;;9.50;99.90;;;;;;5015765;28;20571;-63
2023/04/07 03:03:34;;;;;;;46.00;31.53;;;9.60;99.90;;;;;;5011510;28;20183;-63
2023/04/07 03:06:00;;;;;;;30.27;21.67;;;9.60;99.90;;;;;;5016289;28;20269;-63
2023/04/07 03:08:26;;;;;;;38.37;23.33;;;9.60;99.90;;;;;;5030203;28;20195;-63
2023/04/07 03:10:52;;;;;;;39.43;23.83;;;9.60;99.90;;;;;;5017759;28;20220;-65
2023/04/07 03:13:18;;;;;;;43.63;27.27;;;9.60;99.90;;;;;;5028956;28;20242;-64
2023/04/07 03:15:44;;;;;;;47.53;29.43;;;9.50;99.90;;;;;;5023206;28;20305;-64
2023/04/07 03:18:10;;;;;;;45.03;30.70;;;9.60;99.90;;;;;;5029074;28;20574;-65
2023/04/07 03:20:36;;;;;;;43.20;29.43;;;9.60;99.90;;;;;;4996765;28;20629;-64
2023/04/07 03:23:02;;;;;;;57.30;36.47;;;9.50;99.90;;;;;;5044472;28;20198;-64
2023/04/07 03:25:28;;;;;;;64.77;38.90;;;9.50;99.90;;;;;;5025073;28;20216;-64
2023/04/07 03:27:54;;;;;;;54.33;37.67;;;9.50;99.90;;;;;;5049811;28;20265;-64
2023/04/07 03:30:20;;;;;;;43.20;26.70;;;9.60;99.90;;;;;;5028282;28;20190;-64
2023/04/07 03:32:46;;;;;;;35.77;23.83;;;9.70;99.90;;;;;;5000845;28;20183;-64
2023/04/07 03:35:11;;;;;;;38.63;18.37;;;9.60;99.90;;;;;;5013857;28;20220;-64
2023/04/07 03:37:37;;;;;;;33.07;18.97;;;9.50;99.90;;;;;;5019755;28;20621;-64
2023/04/07 03:40:03;;;;;;;52.73;30.03;;;9.50;99.90;;;;;;5022628;28;20228;-64
2023/04/07 03:42:29;;;;;;;54.33;34.00;;;9.60;99.90;;;;;;5025194;28;20183;-64
2023/04/07 03:44:54;;;;;;;49.20;30.97;;;9.70;99.90;;;;;;5008000;28;20253;-64
2023/04/07 03:47:21;;;;;;;40.13;25.40;;;9.70;99.90;;;;;;5017158;28;20309;-64
2023/04/07 03:49:47;;;;;;;36.77;21.70;;;9.50;99.90;;;;;;5040951;28;20198;-64
2023/04/07 03:52:12;;;;;;;24.73;16.40;;;9.50;99.90;;;;;;5028553;28;20204;-64
2023/04/07 03:54:38;;;;;;;40.70;21.70;;;9.50;99.90;;;;;;5027834;28;20279;-65
2023/04/07 03:57:04;;;;;;;40.03;26.00;;;9.50;99.90;;;;;;5022422;28;20615;-64
2023/04/07 03:59:29;;;;;;;44.60;27.97;;;9.50;99.90;;;;;;5023345;28;20656;-64
2023/04/07 04:01:55;;;;;;;42.43;27.70;;;9.50;99.90;;;;;;5009129;28;20189;-64
2023/04/07 04:04:23;;;;;;;57.17;30.73;;;9.50;99.90;;;;;;5015142;28;20226;-64
2023/04/07 04:06:49;;;;;;;42.60;28.23;;;9.40;99.90;;;;;;5008973;28;20184;-64
2023/04/07 04:09:15;;;;;;;43.00;26.93;;;9.40;99.90;;;;;;5016664;28;20282;-64
2023/04/07 04:11:41;;;;;;;41.83;24.10;;;9.30;99.90;;;;;;5009089;28;20277;-64
2023/04/07 04:14:07;;;;;;;40.40;23.73;;;9.40;99.90;;;;;;5018318;28;20241;-64
2023/04/07 04:16:34;;;;;;;34.63;19.40;;;9.40;99.90;;;;;;5020601;28;20271;-64
2023/04/07 04:19:00;;;;;;;27.77;14.20;;;9.40;99.90;;;;;;5020632;28;20257;-64
2023/04/07 04:21:26;;;;;;;23.47;13.70;;;9.40;99.90;;;;;;5000340;28;20649;-64
2023/04/07 04:23:52;;;;;;;32.67;16.90;;;9.50;99.90;;;;;;5014769;28;20195;-64
2023/04/07 04:26:17;;;;;;;35.37;16.20;;;9.40;99.90;;;;;;5016713;28;20192;-64
2023/04/07 04:28:43;;;;;;;33.90;17.70;;;9.40;99.90;;;;;;5033650;28;20662;-64
2023/04/07 04:31:09;;;;;;;37.17;18.70;;;9.50;99.90;;;;;;5001045;28;20616;-64
2023/04/07 04:33:35;;;;;;;36.10;21.60;;;9.50;99.90;;;;;;5003915;28;20187;-64
2023/04/07 04:36:00;;;;;;;31.83;17.57;;;9.40;99.90;;;;;;5015049;28;20211;-64
2023/04/07 04:38:26;;;;;;;25.33;15.50;;;9.40;99.90;;;;;;5014376;28;20250;-65
2023/04/07 04:40:52;;;;;;;27.83;13.27;;;9.40;99.90;;;;;;5020875;28;20545;-64
2023/04/07 04:43:17;;;;;;;21.67;11.30;;;9.30;99.90;;;;;;5014618;28;20188;-64
2023/04/07 04:45:43;;;;;;;20.00;11.10;;;9.20;99.90;;;;;;5040881;28;20543;-64
2023/04/07 04:48:09;;;;;;;21.87;11.27;;;9.20;99.90;;;;;;5023103;28;20638;-64
2023/04/07 04:50:35;;;;;;;22.37;12.00;;;9.30;99.90;;;;;;5007900;28;20187;-65
2023/04/07 04:53:01;;;;;;;19.53;10.50;;;9.20;99.90;;;;;;5012541;28;20249;-64
2023/04/07 04:55:27;;;;;;;17.97;9.13;;;9.30;99.90;;;;;;5003883;28;20637;-64
2023/04/07 04:57:53;;;;;;;18.30;12.10;;;9.30;99.90;;;;;;5013071;28;20249;-64
2023/04/07 05:00:19;;;;;;;24.23;10.60;;;9.20;99.90;;;;;;5050169;28;20549;-64
2023/04/07 05:02:45;;;;;;;22.27;11.70;;;9.10;99.90;;;;;;5029139;28;20187;-64
2023/04/07 05:05:11;;;;;;;23.47;11.67;;;9.10;99.90;;;;;;5008074;28;20271;-64
2023/04/07 05:07:39;;;;;;;24.73;12.53;;;8.90;99.90;;;;;;5023983;28;20261;-63
2023/04/07 05:10:06;;;;;;;26.27;12.50;;;8.90;99.90;;;;;;5017454;28;20187;-64
2023/04/07 05:12:31;;;;;;;21.90;13.30;;;8.90;99.90;;;;;;5006952;28;20176;-64
2023/04/07 05:14:57;;;;;;;22.00;11.47;;;8.80;99.90;;;;;;5026926;28;20693;-64
2023/04/07 05:17:23;;;;;;;21.97;11.47;;;8.80;99.90;;;;;;5013750;28;20772;-64
2023/04/07 05:19:48;;;;;;;22.80;12.97;;;8.80;99.90;;;;;;5008031;28;20195;-64
2023/04/07 05:22:15;;;;;;;21.57;12.53;;;8.80;99.90;;;;;;5015514;28;20190;-65
2023/04/07 05:24:40;;;;;;;29.60;14.70;;;8.70;99.90;;;;;;5026804;28;20198;-64
2023/04/07 05:27:06;;;;;;;25.97;12.00;;;8.70;99.90;;;;;;5021870;28;20190;-64
2023/04/07 05:29:32;;;;;;;23.50;11.83;;;8.70;99.90;;;;;;5018564;28;20206;-64
2023/04/07 05:31:57;;;;;;;27.07;10.93;;;8.70;99.90;;;;;;5014465;28;20189;-64
2023/04/07 05:34:23;;;;;;;32.07;14.53;;;8.70;99.90;;;;;;5018524;28;20577;-64
2023/04/07 05:36:49;;;;;;;25.47;11.33;;;8.80;99.90;;;;;;5002532;28;20208;-65
2023/04/07 05:39:14;;;;;;;25.10;12.17;;;8.80;99.90;;;;;;5023191;28;20662;-64
2023/04/07 05:41:41;;;;;;;24.73;13.23;;;8.80;99.90;;;;;;5041401;28;20315;-64
2023/04/07 05:44:06;;;;;;;21.27;10.87;;;8.80;99.90;;;;;;5005827;28;20186;-64
2023/04/07 05:46:32;;;;;;;24.80;11.13;;;8.90;99.90;;;;;;5026604;28;20202;-64
2023/04/07 05:48:58;;;;;;;26.97;12.53;;;9.00;99.90;;;;;;5022945;28;20281;-64
2023/04/07 05:51:23;;;;;;;26.53;12.97;;;9.00;99.90;;;;;;5012481;28;20194;-65
2023/04/07 05:53:49;;;;;;;20.40;13.30;;;9.00;99.90;;;;;;5008230;28;20238;-65
2023/04/07 05:56:14;;;;;;;21.67;12.60;;;9.10;99.90;;;;;;5010892;28;20218;-64
2023/04/07 05:58:40;;;;;;;24.27;12.63;;;9.20;99.90;;;;;;5022969;28;20329;-65
2023/04/07 06:01:06;;;;;;;22.23;11.63;;;9.10;99.90;;;;;;5006459;28;20662;-65
2023/04/07 06:03:31;;;;;;;20.93;12.27;;;9.20;99.90;;;;;;5018879;28;20642;-65
2023/04/07 06:05:57;;;;;;;30.37;13.50;;;9.30;99.90;;;;;;5041011;28;20218;-65
2023/04/07 06:08:23;;;;;;;24.63;13.70;;;9.40;99.90;;;;;;5020199;28;20688;-65
2023/04/07 06:10:48;;;;;;;21.17;12.53;;;9.50;99.90;;;;;;5002122;28;20202;-65
2023/04/07 06:13:14;;;;;;;23.20;12.00;;;9.60;99.90;;;;;;5000813;28;20558;-65
2023/04/07 06:15:40;;;;;;;25.93;12.37;;;9.70;99.90;;;;;;5012095;28;20632;-65
2023/04/07 06:18:05;;;;;;;30.77;13.00;;;9.60;99.90;;;;;;5030389;28;20246;-65
2023/04/07 06:20:31;;;;;;;23.53;12.93;;;9.70;99.90;;;;;;5032535;28;20179;-65
2023/04/07 06:22:57;;;;;;;24.43;14.23;;;9.80;99.90;;;;;;5056108;28;20183;-65
2023/04/07 06:25:22;;;;;;;25.23;12.87;;;9.90;99.90;;;;;;5010709;28;20556;-65
2023/04/07 06:27:48;;;;;;;22.07;12.63;;;10.00;99.90;;;;;;5010352;28;20299;-65
2023/04/07 06:30:14;;;;;;;20.87;11.80;;;10.20;99.90;;;;;;5022129;28;20261;-65
2023/04/07 06:32:40;;;;;;;22.85;11.77;;;10.50;99.90;;;;;;5031334;28;20274;-65
2023/04/07 06:35:06;;;;;;;23.80;11.45;;;10.50;99.90;;;;;;5018082;28;20299;-65
2023/04/07 06:37:32;;;;;;;20.17;11.90;;;10.60;99.90;;;;;;5029745;28;20211;-65
2023/04/07 06:39:58;;;;;;;26.87;12.07;;;10.60;99.90;;;;;;5057055;28;20627;-65
2023/04/07 06:42:23;;;;;;;23.30;12.32;;;10.50;99.90;;;;;;5019182;28;20186;-66
2023/04/07 06:44:49;;;;;;;19.73;10.13;;;10.30;99.90;;;;;;5017113;28;20241;-67
2023/04/07 06:47:15;;;;;;;23.73;11.60;;;10.30;99.90;;;;;;5025873;28;20182;-66
2023/04/07 06:49:40;;;;;;;22.90;11.43;;;10.30;99.90;;;;;;5018946;28;20195;-66
2023/04/07 06:52:06;;;;;;;20.83;10.50;;;10.40;99.90;;;;;;5045754;28;20724;-66
2023/04/07 06:54:32;;;;;;;20.27;10.67;;;10.40;99.90;;;;;;5022193;28;20552;-67
2023/04/07 06:56:57;;;;;;;20.40;9.37;;;10.30;99.90;;;;;;5026691;28;20242;-66
2023/04/07 06:59:23;;;;;;;16.97;9.40;;;10.20;99.90;;;;;;5027950;28;20195;-65
2023/04/07 07:01:49;;;;;;;24.13;10.63;;;10.20;99.90;;;;;;5010269;28;20207;-65
2023/04/07 07:04:14;;;;;;;18.10;9.53;;;10.20;99.90;;;;;;5026222;28;20187;-65
2023/04/07 07:06:40;;;;;;;17.10;9.47;;;10.10;99.90;;;;;;5024530;28;20194;-65
2023/04/07 07:09:06;;;;;;;14.27;9.73;;;10.20;99.90;;;;;;5001625;28;20184;-66
2023/04/07 07:11:32;;;;;;;18.73;9.20;;;10.20;99.90;;;;;;5004588;28;20270;-65
2023/04/07 07:13:57;;;;;;;18.07;9.27;;;10.30;99.90;;;;;;5002521;28;20547;-65
2023/04/07 07:16:23;;;;;;;12.30;8.97;;;10.40;99.90;;;;;;5014369;28;20254;-65
2023/04/07 07:18:50;;;;;;;13.67;8.00;;;10.40;99.90;;;;;;5008849;28;20290;-65
2023/04/07 07:21:17;;;;;;;17.40;10.00;;;10.60;99.90;;;;;;5016037;28;20672;-65
2023/04/07 07:23:43;;;;;;;19.05;8.63;;;10.80;99.90;;;;;;5001405;28;20179;-65
2023/04/07 07:26:09;;;;;;;15.30;8.25;;;11.00;99.90;;;;;;4998137;28;20278;-66
2023/04/07 07:28:35;;;;;;;13.43;8.18;;;11.30;99.90;;;;;;5009429;28;20176;-65
2023/04/07 07:31:08;;;;;;;15.38;9.00;;;11.30;99.90;;;;;;5007160;28;20715;-65
2023/04/07 07:33:34;;;;;;;13.38;7.90;;;11.30;99.90;;;;;;5013297;28;20175;-66
2023/04/07 07:36:00;;;;;;;12.30;6.95;;;11.20;99.90;;;;;;5007236;28;20207;-65
2023/04/07 07:38:26;;;;;;;13.55;7.32;;;11.30;99.90;;;;;;5013112;28;20628;-65
2023/04/07 07:40:52;;;;;;;9.63;5.88;;;11.20;99.90;;;;;;5011434;28;20628;-64
2023/04/07 07:43:18;;;;;;;13.15;6.53;;;11.10;99.90;;;;;;5007814;28;20214;-64
2023/04/07 07:45:43;;;;;;;9.20;5.55;;;11.00;99.90;;;;;;5013775;28;20233;-65
2023/04/07 07:48:09;;;;;;;11.07;6.70;;;10.90;99.90;;;;;;5009601;28;20206;-64
2023/04/07 07:50:35;;;;;;;10.52;7.53;;;10.90;99.90;;;;;;5001711;28;20179;-65
2023/04/07 07:53:01;;;;;;;12.20;7.20;;;11.10;99.90;;;;;;5004317;28;20624;-66
2023/04/07 07:55:27;;;;;;;14.48;7.30;;;11.10;99.90;;;;;;5039305;28;20207;-66
2023/04/07 07:57:52;;;;;;;11.18;7.35;;;11.20;99.90;;;;;;5004383;28;20539;-65
2023/04/07 08:00:18;;;;;;;14.68;7.88;;;11.20;99.90;;;;;;5003438;28;20573;-66
2023/04/07 08:02:44;;;;;;;13.23;6.38;;;11.10;99.90;;;;;;5010442;28;20218;-66
2023/04/07 08:05:10;;;;;;;11.63;6.35;;;11.00;99.90;;;;;;5010701;28;20578;-65
2023/04/07 08:07:36;;;;;;;7.72;5.93;;;10.80;99.90;;;;;;5011750;28;20396;-66
2023/04/07 08:10:02;;;;;;;13.35;6.57;;;10.70;99.90;;;;;;5012919;28;20702;-66
2023/04/07 08:12:27;;;;;;;9.23;5.97;;;10.70;99.90;;;;;;5010613;28;20192;-66
2023/04/07 08:14:53;;;;;;;7.10;5.18;;;10.80;99.90;;;;;;5011338;28;20346;-66
2023/04/07 08:17:19;;;;;;;6.97;4.32;;;10.80;99.90;;;;;;5012816;28;20245;-65
2023/04/07 08:19:45;;;;;;;6.88;5.13;;;10.90;99.90;;;;;;5002546;28;20196;-67
2023/04/07 08:22:10;;;;;;;8.95;4.85;;;10.80;99.90;;;;;;5016327;28;20198;-65
2023/04/07 08:24:36;;;;;;;9.77;6.43;;;10.80;99.90;;;;;;5013665;28;20203;-66
2023/04/07 08:27:02;;;;;;;11.60;6.93;;;10.90;99.90;;;;;;5008646;28;20179;-65
2023/04/07 08:29:27;;;;;;;9.27;4.97;;;11.00;99.90;;;;;;5010065;28;20233;-66
2023/04/07 08:31:53;;;;;;;8.80;5.22;;;11.30;99.90;;;;;;5011827;28;20313;-66
2023/04/07 08:34:20;;;;;;;6.82;5.97;;;11.60;99.90;;;;;;5004351;28;20186;-66
2023/04/07 08:36:46;;;;;;;7.00;4.43;;;11.90;99.90;;;;;;5012733;28;20207;-65
2023/04/07 08:39:11;;;;;;;6.78;4.75;;;12.00;99.90;;;;;;5003052;28;20187;-68
2023/04/07 08:41:43;;;;;;;6.05;3.80;;;12.30;99.90;;;;;;4996955;28;20643;-66
2023/04/07 08:44:10;;;;;;;5.65;3.80;;;12.40;99.90;;;;;;5006273;28;20612;-65
2023/04/07 08:46:38;;;;;;;5.15;3.67;;;12.70;99.90;;;;;;5011984;28;20511;-65
2023/04/07 08:49:09;;;;;;;6.50;3.53;;;13.20;99.90;;;;;;5005210;28;20191;-66
2023/04/07 08:51:37;;;;;;;10.57;3.72;;;13.50;99.90;;;;;;5012788;28;20175;-65
2023/04/07 08:54:11;;;;;;;3.88;3.35;;;13.70;99.90;;;;;;5011112;28;20180;-66
2023/04/07 08:56:41;;;;;;;7.63;3.35;;;13.70;99.90;;;;;;5011332;28;20209;-67
2023/04/07 08:59:13;;;;;;;3.10;2.70;;;13.40;99.90;;;;;;5031476;28;20628;-66
2023/04/07 09:01:40;;;;;;;4.25;3.30;;;13.10;99.90;;;;;;5004339;28;20726;-68
2023/04/07 09:04:08;;;;;;;4.28;3.10;;;12.70;99.90;;;;;;5009402;28;20187;-65
2023/04/07 09:06:34;;;;;;;4.30;3.17;;;12.50;99.90;;;;;;5011783;28;20190;-65
2023/04/07 09:09:01;;;;;;;5.78;2.85;;;12.60;99.90;;;;;;5008901;28;20521;-66
2023/04/07 09:11:28;;;;;;;5.22;2.85;;;12.60;99.90;;;;;;5011175;28;20181;-66
2023/04/07 09:13:54;;;;;;;12.02;3.42;;;12.90;99.90;;;;;;5008855;28;20183;-66
2023/04/07 09:16:20;;;;;;;3.22;2.30;;;12.90;99.90;;;;;;5039291;28;20298;-65
2023/04/07 09:18:46;;;;;;;4.65;2.72;;;13.10;99.90;;;;;;5004584;28;20748;-65
2023/04/07 09:21:12;;;;;;;3.65;2.97;;;13.10;99.90;;;;;;5008779;28;20186;-65
2023/04/07 09:23:39;;;;;;;5.03;2.97;;;13.00;99.90;;;;;;5000353;28;20179;-66
2023/04/07 09:26:21;;;;;;;2.63;2.42;;;13.10;99.90;;;;;;5006938;28;20195;-65
2023/04/07 09:28:52;;;;;;;4.50;2.97;;;13.40;99.90;;;;;;5007886;28;20179;-65
2023/04/07 09:31:19;;;;;;;2.70;2.47;;;13.50;99.90;;;;;;5000859;28;20188;-65
2023/04/07 09:33:46;;;;;;;2.90;2.40;;;13.90;99.90;;;;;;5013075;28;20179;-66
2023/04/07 09:36:11;;;;;;;7.10;2.88;;;14.20;99.90;;;;;;5000778;28;20204;-66
2023/04/07 09:38:39;;;;;;;5.60;2.33;;;14.30;99.90;;;;;;5008809;28;20181;-68
2023/04/07 09:41:13;;;;;;;2.55;2.17;;;14.20;99.90;;;;;;5008173;28;20192;-67
2023/04/07 09:43:41;;;;;;;5.53;2.97;;;13.80;99.90;;;;;;4996136;28;20175;-66
2023/04/07 09:46:15;;;;;;;2.75;2.47;;;13.70;99.90;;;;;;5008520;28;20237;-68
2023/04/07 09:48:42;;;;;;;6.40;2.30;;;13.80;99.90;;;;;;5003162;28;20535;-65
2023/04/07 09:51:16;;;;;;;4.28;2.05;;;13.70;99.90;;;;;;5015536;28;20170;-66
2023/04/07 09:53:43;;;;;;;2.38;2.17;;;13.80;99.90;;;;;;5003156;28;20184;-66
2023/04/07 09:56:10;;;;;;;6.43;2.45;;;13.80;99.90;;;;;;5001345;28;20208;-64
2023/04/07 09:58:39;;;;;;;2.65;1.98;;;14.30;99.90;;;;;;5012665;28;20183;-64
2023/04/07 10:01:10;;;;;;;3.10;1.88;;;14.80;99.90;;;;;;5007851;28;20179;-64
2023/04/07 10:03:36;;;;;;;1.85;1.70;;;15.30;99.90;;;;;;5013079;28;20203;-63
2023/04/07 10:06:04;;;;;;;7.95;3.05;;;15.50;99.90;;;;;;5008912;28;20274;-63
2023/04/07 10:08:32;;;;;;;2.15;1.73;;;15.60;99.90;;;;;;5012960;28;20171;-68
2023/04/07 10:11:01;;;;;;;2.38;2.15;;;15.30;99.90;;;;;;5007160;28;20176;-64
2023/04/07 10:13:32;;;;;;;2.53;2.13;;;15.20;99.90;;;;;;4995652;28;20221;-66
2023/04/07 10:15:59;;;;;;;1.65;1.55;;;14.90;99.90;;;;;;5007585;28;20215;-65
2023/04/07 10:18:30;;;;;;;2.03;1.83;;;14.60;99.90;;;;;;5004877;28;20222;-64
2023/04/07 10:20:59;;;;;;;2.28;1.13;;;14.60;99.90;;;;;;4999629;28;20176;-65
2023/04/07 10:23:47;;;;;;;4.25;1.73;;;14.40;99.90;;;;;;5014890;28;20262;-64
2023/04/07 10:26:18;;;;;;;6.78;2.22;;;14.30;99.90;;;;;;5021289;28;20217;-67
2023/04/07 10:28:48;;;;;;;3.47;1.73;;;14.10;99.90;;;;;;5004205;28;20179;-65
2023/04/07 10:31:15;;;;;;;2.45;2.05;;;13.80;99.90;;;;;;5002560;28;20204;-64
2023/04/07 10:33:51;;;;;;;3.10;1.70;;;13.20;99.90;;;;;;5013724;28;20209;-68
2023/04/07 10:36:21;;;;;;;5.00;1.63;;;13.00;99.90;;;;;;4995126;28;20208;-64
2023/04/07 10:39:06;;;;;;;2.13;2.03;;;12.80;99.90;;;;;;5029328;28;20635;-64
2023/04/07 10:41:33;;;;;;;2.15;1.67;;;13.10;99.90;;;;;;5027356;28;20182;-64
2023/04/07 10:43:59;;;;;;;1.63;1.52;;;13.30;99.90;;;;;;5006595;28;20167;-64
2023/04/07 10:46:25;;;;;;;2.20;2.10;;;13.50;99.90;;;;;;4993680;28;20195;-64
2023/04/07 10:49:17;;;;;;;6.32;3.45;;;13.70;99.90;;;;;;5016998;28;20201;-64
2023/04/07 10:51:43;;;;;;;3.88;1.25;;;14.00;99.90;;;;;;5024237;28;20287;-64
2023/04/07 10:54:16;;;;;;;2.60;1.80;;;14.20;99.90;;;;;;5015171;28;20258;-67
2023/04/07 10:57:09;;;;;;;5.03;2.22;;;14.40;99.90;;;;;;5001647;28;20214;-64
2023/04/07 10:59:36;;;;;;;4.95;2.28;;;14.60;99.90;;;;;;5008880;28;20168;-64
2023/04/07 11:02:14;;;;;;;5.60;2.20;;;14.60;99.90;;;;;;5009257;28;20211;-63
2023/04/07 11:04:48;;;;;;;2.95;2.45;;;14.60;99.90;;;;;;5012497;28;20242;-65
2023/04/07 11:07:15;;;;;;;3.17;2.50;;;14.50;99.90;;;;;;5011420;28;20186;-66
2023/04/07 11:09:41;;;;;;;5.93;2.45;;;14.10;99.90;;;;;;5010904;28;20261;-64
2023/04/07 11:12:07;;;;;;;6.20;3.42;;;13.90;99.90;;;;;;5014153;28;20660;-64
2023/04/07 11:14:36;;;;;;;7.70;2.65;;;13.70;99.90;;;;;;5006832;28;20206;-65
2023/04/07 11:17:03;;;;;;;4.20;2.80;;;13.50;99.90;;;;;;5006747;28;20231;-63
2023/04/07 11:19:31;;;;;;;7.78;2.88;;;13.50;99.90;;;;;;5012686;28;20654;-64
2023/04/07 11:22:15;;;;;;;3.88;2.10;;;13.60;99.90;;;;;;5006523;28;20640;-63
2023/04/07 11:24:42;;;;;;;4.60;1.88;;;13.40;99.90;;;;;;5009227;28;20666;-63
2023/04/07 11:27:14;;;;;;;4.32;2.15;;;13.40;99.90;;;;;;5008100;28;20190;-63
2023/04/07 11:29:40;;;;;;;2.85;1.80;;;13.50;99.90;;;;;;5017052;28;20587;-63
2023/04/07 11:32:06;;;;;;;1.88;1.73;;;13.60;99.90;;;;;;5009404;28;20266;-63
2023/04/07 11:34:34;;;;;;;2.38;2.17;;;13.80;99.90;;;;;;5015346;28;20198;-63
2023/04/07 11:37:23;;;;;;;5.05;1.60;;;14.10;99.90;;;;;;5012268;28;20206;-64
2023/04/07 11:39:56;;;;;;;5.85;2.20;;;14.20;99.90;;;;;;5015355;28;20232;-63
2023/04/07 11:42:36;;;;;;;3.72;2.65;;;14.50;99.90;;;;;;5051574;28;20179;-64
2023/04/07 11:45:02;;;;;;;7.95;2.25;;;14.90;99.90;;;;;;5031492;28;20209;-65
2023/04/07 11:47:39;;;;;;;2.75;1.48;;;15.00;99.90;;;;;;5039419;28;20270;-64
2023/04/07 11:50:05;;;;;;;3.10;1.75;;;14.90;99.90;;;;;;5012195;28;20232;-64
2023/04/07 11:52:42;;;;;;;9.13;3.83;;;14.80;99.90;;;;;;5024502;28;20643;-64
2023/04/07 11:55:20;;;;;;;3.42;1.67;;;14.50;99.90;;;;;;5014453;28;20183;-63
2023/04/07 11:57:46;;;;;;;5.97;2.63;;;14.20;99.90;;;;;;5007830;28;20185;-64
2023/04/07 12:00:14;;;;;;;3.45;2.17;;;14.10;99.90;;;;;;5028931;28;20528;-63
2023/04/07 12:02:40;;;;;;;2.25;2.05;;;13.90;99.90;;;;;;5012206;28;20179;-64
2023/04/07 12:05:06;;;;;;;2.63;1.80;;;13.70;99.90;;;;;;5023838;28;20187;-64
2023/04/07 12:07:32;;;;;;;2.85;1.80;;;13.60;99.90;;;;;;5031104;28;20269;-64
2023/04/07 12:10:19;;;;;;;4.00;1.42;;;13.70;99.90;;;;;;5015586;28;20270;-64
2023/04/07 12:12:46;;;;;;;3.63;1.73;;;13.70;99.90;;;;;;5021370;28;20189;-64
2023/04/07 12:15:12;;;;;;;6.63;3.03;;;13.90;99.90;;;;;;5023451;28;20211;-64
2023/04/07 12:17:43;;;;;;;5.43;2.03;;;13.90;99.90;;;;;;5027322;28;20289;-64
2023/04/07 12:20:09;;;;;;;4.47;2.67;;;14.10;99.90;;;;;;5011684;28;20680;-64
2023/04/07 12:22:34;;;;;;;4.60;2.10;;;14.40;99.90;;;;;;5016008;28;20560;-64
2023/04/07 12:25:00;;;;;;;4.68;2.03;;;14.50;99.90;;;;;;5006560;28;20233;-65
2023/04/07 12:27:27;;;;;;;4.82;2.20;;;14.60;99.90;;;;;;5014047;28;20207;-64
2023/04/07 12:29:52;;;;;;;9.00;2.40;;;14.40;99.90;;;;;;5026232;28;20228;-64
2023/04/07 12:32:18;;;;;;;2.15;1.95;;;14.30;99.90;;;;;;5034777;28;20186;-64
2023/04/07 12:34:44;;;;;;;5.50;3.25;;;14.30;99.90;;;;;;5004034;28;20183;-64
2023/04/07 12:37:09;;;;;;;2.08;1.55;;;14.60;99.90;;;;;;5043362;28;20202;-64
2023/04/07 12:39:35;;;;;;;4.70;1.42;;;14.60;99.90;;;;;;5027533;28;20186;-64
2023/04/07 12:42:00;;;;;;;3.58;1.70;;;14.80;99.90;;;;;;5006759;28;20184;-64